Aeroporto :
LOGIN :

Iscrizione | Disclaimer

   EN    FR    IT 

 










Sommario :    VFR   VFR Marginale   IFR   IFR Intensivo   IFR Molto Intensivo
Visibilità : 
Base nubi : 
>= 8 km
>= 3000ft
5 / 8 km
1000 / 3000 ft
1500m / 5 km
500 / 1000 ft
800 / 1500m
200 / 500 ft
< 800m
< 200 ft
Simboli :   Temporali  Nebbia  Neve Forte  Precipitazioni Forti  Vento > 20 kt
SIGMETs :   Varie  Temporali  Ghiacco  Turbolenza  Onda orograficha  Ceneri Vulcaniche







- Altitudine del aeroporto : 18 ft
- Codice IATA : AJA
- Carte del aeroporto


LFKJ - Ajaccio

ULTIMO METAR :
  • 220630Z AUTO 03003KT 360V060 9999 BKN030 OVC036 16/11 Q1016 BECMG 24010KT

METARs OBSOLETI :
  • 220600Z AUTO VRB03KT 9999 FEW022 BKN031 OVC045 15/11 Q1016 NOSIG
  • 220530Z AUTO 04005KT 9999 BKN021 BKN027 OVC033 14/11 Q1016 BECMG 24010KT
  • 220500Z AUTO 05005KT 9999 SCT026 OVC034 14/11 Q1016 NOSIG
  • 220430Z AUTO 06005KT 9999 OVC033 14/11 Q1016 NOSIG
  • 220400Z AUTO 04004KT 9999 OVC036 13/11 Q1016 NOSIG

TAF TAF LFKJ
Valido dal 22 a 03 ore il 23 a 03 ore UTC


220200Z 2203/2303 05006KT 9999 BKN050 BKN070
BECMG 2207/2209 24010KT
TEMPO 2218/2221 BKN014
ATIS : +33 4 95 23 59 85
Nessun NOTAM noto per questo aeroporto.



MetMap, La meteo Aeronautica in un colpo d'occhio ! - Copyright ORBIFLY Dicembre 2007 - Disclaimer

ORBIFLY MET'MAP TEAM :

Programmazione e sviluppo : Alexandra Zaïnal
Concezione e sviluppo : Baudouin d'Aumeries
Co-Programmazione e sviluppo : Marc-Olivier Méhu
Supporto tecnico e logistico : Manuel Goepfert
Aiuto per la traduzione : Arnaldo La Scala

Contatto : metmap@orbifly.com




FONTI E CREDITI :

   NOAA